Murmansk, Russia
Current Conditions -  °F | °C
As of 11:30 AM on Sunday 26 Oct 2014 (Local Time) from ULMM Reporting Station
Broken Clouds Broken Clouds  
Wind Chill: 25°   Ceiling: 1800
Heat Index: 34°   Visibility: 6mi
Dew Point: 30°   Wind: 11mph
Humidity: 87%   Direction: 150°SSE
Pressure: 29.68"   Gusts: NA
Location:  68.96°N, 33.08°E
Report Text: ULMM 260830Z 15005MPS 9999 BKN018CB 01/M01 Q1005 NOSIG RMK QFE747 13290150
Loading
Personal Weather Stations






























Interactive Weather Map
Tropical Storm Tracking
New forecast layout! Learn more

10-Day Weather Forecast

Advertisements
Track Severe Weather on mobile